createdAt,value
2022-10-22T00:01:13.180Z,91969.78
2022-10-22T00:03:58.981Z,91957.66
2022-10-22T00:06:44.908Z,91963.78
2022-10-22T00:09:30.870Z,91968.69
2022-10-22T00:12:16.697Z,91960.28
2022-10-22T00:15:02.706Z,91957.41
2022-10-22T00:17:48.493Z,91962.69
2022-10-22T00:20:34.272Z,91984.22
2022-10-22T00:23:20.260Z,91987.22
2022-10-22T00:26:05.953Z,91989.97
2022-10-22T00:28:51.659Z,91999.38
2022-10-22T00:31:37.440Z,91997.41
2022-10-22T00:34:23.419Z,91994.41
2022-10-22T00:37:09.354Z,91998.09
2022-10-22T00:39:55.161Z,91994.72
2022-10-22T00:42:41.260Z,91997.06
2022-10-22T00:45:28.035Z,91999.78
2022-10-22T00:48:13.743Z,92010.53
2022-10-22T00:50:59.716Z,91994.91
2022-10-22T00:53:45.661Z,91998.53
2022-10-22T00:56:31.460Z,92009.91
2022-10-22T00:59:17.303Z,92007.88
2022-10-22T01:02:03.083Z,92021.78
2022-10-22T01:04:48.832Z,92032.50
2022-10-22T01:07:34.686Z,92049.97
2022-10-22T01:10:20.394Z,92049.16
2022-10-22T01:13:06.336Z,92019.22
2022-10-22T01:15:52.201Z,92033.25
2022-10-22T01:18:38.086Z,92032.53
2022-10-22T01:21:23.937Z,92025.09
2022-10-22T01:24:09.686Z,92028.31
2022-10-22T01:26:55.428Z,92025.94
2022-10-22T01:29:43.321Z,92026.00
2022-10-22T01:32:29.247Z,92016.50
2022-10-22T01:35:15.073Z,92022.59
2022-10-22T01:38:00.794Z,92019.50
2022-10-22T01:40:46.711Z,92020.63
2022-10-22T01:43:32.610Z,92028.88
2022-10-22T01:46:18.326Z,92032.56
2022-10-22T01:49:04.179Z,92034.44
2022-10-22T01:51:50.005Z,92034.38
2022-10-22T01:54:35.981Z,92027.38
2022-10-22T01:57:21.787Z,92005.25
2022-10-22T02:00:07.525Z,91993.41
2022-10-22T02:02:53.325Z,91996.28
2022-10-22T02:05:39.209Z,91998.28
2022-10-22T02:08:25.089Z,92014.69
2022-10-22T02:11:11.105Z,92015.56
2022-10-22T02:13:56.912Z,92021.69
2022-10-22T02:16:43.005Z,92019.03
2022-10-22T02:19:28.836Z,92016.91
2022-10-22T02:22:14.673Z,92014.19
2022-10-22T02:25:00.578Z,92014.94
2022-10-22T02:27:46.387Z,92030.34
2022-10-22T02:30:32.159Z,92038.22
2022-10-22T02:33:18.107Z,92036.41
2022-10-22T02:36:03.836Z,92040.56
2022-10-22T02:38:49.785Z,92047.47
2022-10-22T02:41:35.687Z,92057.19
2022-10-22T02:44:21.355Z,92065.97
2022-10-22T02:47:07.176Z,92056.78
2022-10-22T02:49:52.924Z,92056.91
2022-10-22T02:52:41.040Z,92036.13
2022-10-22T02:55:27.303Z,92024.44
2022-10-22T02:58:13.075Z,92024.81
2022-10-22T03:00:58.912Z,92030.13
2022-10-22T03:03:44.875Z,92029.59
2022-10-22T03:06:30.651Z,92032.63
2022-10-22T03:09:17.487Z,92032.63
2022-10-22T03:12:05.811Z,92038.69
2022-10-22T03:14:51.611Z,92039.47
2022-10-22T03:17:37.697Z,92047.09
2022-10-22T03:20:23.722Z,92047.50
2022-10-22T03:23:09.489Z,92052.78
2022-10-22T03:25:55.272Z,92050.13
2022-10-22T03:28:41.050Z,92051.28
2022-10-22T03:31:26.939Z,92053.16
2022-10-22T03:34:12.685Z,92050.13
2022-10-22T03:36:58.461Z,92057.31
2022-10-22T03:39:44.309Z,92054.31
2022-10-22T03:42:30.165Z,92058.06
2022-10-22T03:45:15.971Z,92047.00
2022-10-22T03:48:01.849Z,92049.56
2022-10-22T03:50:47.752Z,92051.94
2022-10-22T03:53:33.557Z,92052.19
2022-10-22T03:56:19.462Z,92071.63
2022-10-22T03:59:05.187Z,92061.25
2022-10-22T04:01:51.271Z,92073.81
2022-10-22T04:04:37.054Z,92074.56
2022-10-22T04:07:22.855Z,92069.16
2022-10-22T04:10:08.792Z,92074.06
2022-10-22T04:13:07.597Z,92091.13
2022-10-22T04:15:53.413Z,92082.75
2022-10-22T04:18:39.323Z,92081.53
2022-10-22T04:21:25.248Z,92090.56
2022-10-22T04:24:11.139Z,92087.53
2022-10-22T04:26:56.977Z,92089.81
2022-10-22T04:29:42.834Z,92087.91
2022-10-22T04:32:28.693Z,92088.28
2022-10-22T04:35:14.577Z,92081.78
2022-10-22T04:38:00.547Z,92081.47
2022-10-22T04:40:46.443Z,92097.34
2022-10-22T04:43:34.425Z,92099.63
2022-10-22T04:46:22.357Z,92102.63
2022-10-22T04:49:07.967Z,92113.56
2022-10-22T04:51:54.001Z,92117.00
2022-10-22T04:54:39.823Z,92108.31
2022-10-22T04:57:25.617Z,92102.63
2022-10-22T05:00:11.610Z,92109.06
2022-10-22T05:02:57.497Z,92107.94
2022-10-22T05:05:43.320Z,92117.75
2022-10-22T05:08:29.215Z,92117.31
2022-10-22T05:11:14.981Z,92108.31
2022-10-22T05:14:00.932Z,92112.47
2022-10-22T05:19:37.463Z,92116.63
2022-10-22T05:22:23.170Z,92125.69
2022-10-22T05:25:09.064Z,92129.84
2022-10-22T05:27:57.228Z,92126.84
2022-10-22T05:30:46.220Z,92128.34
2022-10-22T05:33:31.994Z,92138.91
2022-10-22T05:36:17.898Z,92132.88
2022-10-22T05:39:03.688Z,92131.34
2022-10-22T05:41:49.516Z,92135.78
2022-10-22T05:44:35.299Z,92136.63
2022-10-22T05:47:21.148Z,92139.91
2022-10-22T05:50:07.152Z,92137.66
2022-10-22T05:52:53.134Z,92136.41
2022-10-22T05:55:38.977Z,92150.19
2022-10-22T05:58:24.767Z,92150.66
2022-10-22T06:01:10.534Z,92158.56
2022-10-22T06:03:56.579Z,92165.53
2022-10-22T06:06:46.032Z,92165.66
2022-10-22T06:09:31.908Z,92168.66
2022-10-22T06:12:17.881Z,92168.78
2022-10-22T06:15:03.646Z,92169.06
2022-10-22T06:17:49.569Z,92164.00
2022-10-22T06:20:35.536Z,92171.44
2022-10-22T06:23:21.447Z,92172.19
2022-10-22T06:26:09.275Z,92180.50
2022-10-22T06:28:55.283Z,92185.78
2022-10-22T06:31:41.001Z,92182.38
2022-10-22T06:34:26.880Z,92187.31
2022-10-22T06:37:12.700Z,92194.09
2022-10-22T06:39:58.636Z,92198.28
2022-10-22T06:42:44.477Z,92191.84
2022-10-22T06:45:30.351Z,92204.31
2022-10-22T06:48:16.210Z,92209.25
2022-10-22T06:51:02.234Z,92210.38
2022-10-22T06:53:48.012Z,92222.88
2022-10-22T06:56:35.847Z,92220.56
2022-10-22T06:59:21.676Z,92222.47
2022-10-22T07:02:07.438Z,92229.69
2022-10-22T07:04:53.315Z,92225.13
2022-10-22T07:07:39.217Z,92222.84
2022-10-22T07:10:27.247Z,92220.97
2022-10-22T07:13:18.083Z,92228.13
2022-10-22T07:16:03.961Z,92223.22
2022-10-22T07:18:49.737Z,92223.19
2022-10-22T07:21:35.586Z,92224.31
2022-10-22T07:24:21.373Z,92237.50
2022-10-22T07:27:09.507Z,92233.78
2022-10-22T07:29:57.824Z,92236.84
2022-10-22T07:32:43.733Z,92230.75
2022-10-22T07:35:29.479Z,92231.22
2022-10-22T07:38:15.276Z,92225.88
2022-10-22T07:41:01.111Z,92217.59
2022-10-22T07:43:46.961Z,92231.56
2022-10-22T07:46:33.081Z,92225.53
2022-10-22T07:49:18.779Z,92224.25
2022-10-22T07:52:04.621Z,92219.16
2022-10-22T07:54:52.408Z,92216.91
2022-10-22T07:57:38.259Z,92218.03
2022-10-22T08:00:25.319Z,92222.00
2022-10-22T08:03:11.541Z,92226.88
2022-10-22T08:05:57.329Z,92222.97
2022-10-22T08:08:43.206Z,92231.13
2022-10-22T08:11:28.981Z,92237.97
2022-10-22T08:14:14.799Z,92235.22
2022-10-22T08:17:00.752Z,92233.03
2022-10-22T08:19:46.517Z,92241.03
2022-10-22T08:22:32.234Z,92243.63
2022-10-22T08:25:18.026Z,92250.13
2022-10-22T08:28:03.800Z,92257.66
2022-10-22T08:30:49.859Z,92255.75
2022-10-22T08:33:35.716Z,92246.59
2022-10-22T08:36:21.634Z,92250.00
2022-10-22T08:39:07.655Z,92249.53
2022-10-22T08:41:53.614Z,92252.44
2022-10-22T08:44:41.504Z,92256.72
2022-10-22T08:47:27.381Z,92253.00
2022-10-22T08:50:13.242Z,92261.13
2022-10-22T08:52:59.132Z,92263.22
2022-10-22T08:55:47.038Z,92265.59
2022-10-22T08:58:32.887Z,92262.19
2022-10-22T09:01:18.698Z,92260.59
2022-10-22T09:04:04.523Z,92253.41
2022-10-22T09:06:53.498Z,92261.84
2022-10-22T09:09:40.431Z,92266.34
2022-10-22T09:12:26.346Z,92256.56
2022-10-22T09:15:12.144Z,92256.50
2022-10-22T09:17:57.988Z,92260.69
2022-10-22T09:20:43.881Z,92258.81
2022-10-22T09:23:29.934Z,92258.34
2022-10-22T09:26:15.773Z,92261.06
2022-10-22T09:29:01.672Z,92263.59
2022-10-22T09:31:47.461Z,92271.19
2022-10-22T09:34:33.673Z,92269.28
2022-10-22T09:37:19.450Z,92270.59
2022-10-22T09:40:05.114Z,92272.66
2022-10-22T09:42:50.938Z,92269.59
2022-10-22T09:45:36.863Z,92275.28
2022-10-22T09:48:22.688Z,92273.56
2022-10-22T09:51:10.511Z,92272.72
2022-10-22T09:53:56.481Z,92267.41
2022-10-22T09:56:42.358Z,92271.66
2022-10-22T09:59:28.190Z,92262.03
2022-10-22T10:02:20.400Z,92274.94
2022-10-22T10:05:12.576Z,92273.88
2022-10-22T10:07:58.471Z,92282.72
2022-10-22T10:10:44.258Z,92285.13
2022-10-22T10:13:30.063Z,92287.59
2022-10-22T10:16:15.941Z,92280.22
2022-10-22T10:19:01.688Z,92290.63
2022-10-22T10:21:47.421Z,92284.91
2022-10-22T10:24:33.195Z,92283.91
2022-10-22T10:27:19.097Z,92291.78
2022-10-22T10:30:04.979Z,92287.56
2022-10-22T10:32:50.746Z,92288.63
2022-10-22T10:35:36.627Z,92289.78
2022-10-22T10:38:24.729Z,92286.69
2022-10-22T10:41:13.681Z,92285.81
2022-10-22T10:43:59.644Z,92282.34
2022-10-22T10:46:45.546Z,92277.09
2022-10-22T10:49:31.163Z,92273.28
2022-10-22T10:52:21.212Z,92268.28
2022-10-22T10:55:07.746Z,92271.34
2022-10-22T10:57:53.599Z,92272.34
2022-10-22T11:00:39.547Z,92265.50
2022-10-22T11:03:25.364Z,92275.19
2022-10-22T11:06:11.170Z,92268.53
2022-10-22T11:08:57.235Z,92269.00
2022-10-22T11:11:43.194Z,92271.25
2022-10-22T11:14:30.055Z,92265.91
2022-10-22T11:17:16.486Z,92255.69
2022-10-22T11:20:02.541Z,92259.56
2022-10-22T11:23:16.904Z,92254.25
2022-10-22T11:25:54.284Z,92257.28
2022-10-22T11:28:40.125Z,92251.66
2022-10-22T11:31:25.851Z,92248.38
2022-10-22T11:34:32.116Z,92262.09
2022-10-22T11:37:17.799Z,92253.97
2022-10-22T11:40:03.600Z,92246.13
2022-10-22T11:42:49.583Z,92254.97
2022-10-22T11:45:35.412Z,92249.28
2022-10-22T11:48:21.152Z,92255.31
2022-10-22T11:51:06.992Z,92249.97
2022-10-22T11:53:52.897Z,92246.84
2022-10-22T11:56:38.876Z,92247.38
2022-10-22T11:59:24.843Z,92240.44
2022-10-22T12:02:10.623Z,92237.28
2022-10-22T12:04:56.684Z,92245.22
2022-10-22T12:07:42.533Z,92241.13
2022-10-22T12:10:28.376Z,92239.88
2022-10-22T12:13:14.287Z,92231.44
2022-10-22T12:16:00.177Z,92230.69
2022-10-22T12:18:45.958Z,92226.53
2022-10-22T12:21:31.880Z,92228.19
2022-10-22T12:24:17.819Z,92231.75
2022-10-22T12:27:03.920Z,92219.44
2022-10-22T12:29:49.755Z,92218.66
2022-10-22T12:32:35.519Z,92220.66
2022-10-22T12:35:21.483Z,92216.94
2022-10-22T12:38:07.201Z,92206.19
2022-10-22T12:40:52.935Z,92206.97
2022-10-22T12:43:38.955Z,92209.56
2022-10-22T12:46:24.803Z,92206.75
2022-10-22T12:49:10.766Z,92206.75
2022-10-22T12:51:56.665Z,92201.50
2022-10-22T12:54:42.554Z,92196.75
2022-10-22T12:57:28.515Z,92203.88
2022-10-22T13:00:14.308Z,92197.97
2022-10-22T13:03:00.134Z,92201.91
2022-10-22T13:05:46.061Z,92192.31
2022-10-22T13:08:32.061Z,92184.53
2022-10-22T13:11:18.006Z,92188.72
2022-10-22T13:14:03.840Z,92186.88
2022-10-22T13:16:49.687Z,92195.84
2022-10-22T13:19:35.563Z,92180.66
2022-10-22T13:22:21.343Z,92181.06
2022-10-22T13:25:07.302Z,92179.47
2022-10-22T13:27:53.212Z,92182.78
2022-10-22T13:30:39.084Z,92177.50
2022-10-22T13:33:25.027Z,92181.03
2022-10-22T13:36:10.841Z,92179.00
2022-10-22T13:38:56.750Z,92186.25
2022-10-22T13:41:42.657Z,92185.75
2022-10-22T13:44:28.435Z,92187.69
2022-10-22T13:47:14.355Z,92192.72
2022-10-22T13:50:00.348Z,92187.47
2022-10-22T13:52:46.487Z,92183.19
2022-10-22T13:55:32.489Z,92179.59
2022-10-22T13:58:18.606Z,92181.94
2022-10-22T14:01:04.713Z,92173.88
2022-10-22T14:03:50.595Z,92175.00
2022-10-22T14:09:27.247Z,92175.69
2022-10-22T14:12:13.161Z,92173.81
2022-10-22T14:14:58.932Z,92170.47
2022-10-22T14:17:44.871Z,92162.75
2022-10-22T14:20:30.774Z,92162.72
2022-10-22T14:26:03.571Z,92159.72
2022-10-22T14:29:08.774Z,92161.66
2022-10-22T14:31:56.073Z,92160.84
2022-10-22T14:34:41.846Z,92163.75
2022-10-22T14:37:27.877Z,92161.94
2022-10-22T14:40:13.620Z,92161.53
2022-10-22T14:42:59.527Z,92156.63
2022-10-22T14:45:45.479Z,92158.16
2022-10-22T14:48:31.275Z,92169.84
2022-10-22T14:51:16.992Z,92158.81
2022-10-22T14:54:04.736Z,92148.44
2022-10-22T14:56:50.395Z,92154.22
2022-10-22T14:59:36.329Z,92145.50
2022-10-22T15:02:22.110Z,92149.25
2022-10-22T15:05:08.119Z,92151.53
2022-10-22T15:07:54.000Z,92147.75
2022-10-22T15:10:39.694Z,92153.19
2022-10-22T15:13:25.554Z,92145.31
2022-10-22T15:16:11.322Z,92142.66
2022-10-22T15:18:57.144Z,92142.28
2022-10-22T15:21:43.079Z,92147.34
2022-10-22T15:24:28.947Z,92145.56
2022-10-22T15:27:14.812Z,92138.22
2022-10-22T15:30:00.658Z,92144.38
2022-10-22T15:32:46.621Z,92147.66
2022-10-22T15:35:32.456Z,92151.56
2022-10-22T15:38:18.144Z,92147.50
2022-10-22T15:41:05.516Z,92150.28
2022-10-22T15:43:52.187Z,92157.50
2022-10-22T15:46:38.208Z,92148.31
2022-10-22T15:49:24.010Z,92146.28
2022-10-22T15:52:09.988Z,92142.97
2022-10-22T15:54:55.809Z,92138.03
2022-10-22T15:57:41.825Z,92144.34
2022-10-22T16:00:28.083Z,92137.69
2022-10-22T16:03:13.984Z,92143.16
2022-10-22T16:05:59.850Z,92145.47
2022-10-22T16:08:45.677Z,92148.03
2022-10-22T16:11:31.457Z,92147.84
2022-10-22T16:14:17.332Z,92143.50
2022-10-22T16:17:03.015Z,92139.09
2022-10-22T16:19:49.035Z,92144.38
2022-10-22T16:22:34.680Z,92146.13
2022-10-22T16:25:20.473Z,92144.50
2022-10-22T16:28:06.332Z,92142.50
2022-10-22T16:30:52.201Z,92145.38
2022-10-22T16:33:41.606Z,92151.19
2022-10-22T16:36:30.688Z,92149.44
2022-10-22T16:39:16.458Z,92152.91
2022-10-22T16:42:02.231Z,92151.78
2022-10-22T16:44:48.011Z,92154.81
2022-10-22T16:47:33.887Z,92151.78
2022-10-22T16:50:19.732Z,92160.09
2022-10-22T16:53:05.647Z,92155.94
2022-10-22T16:55:51.437Z,92156.31
2022-10-22T16:58:37.292Z,92155.94
2022-10-22T17:01:23.159Z,92160.47
2022-10-22T17:04:09.373Z,92168.03
2022-10-22T17:06:55.209Z,92171.44
2022-10-22T17:09:41.609Z,92179.00
2022-10-22T17:12:27.555Z,92171.41
2022-10-22T17:15:13.447Z,92172.91
2022-10-22T17:17:59.107Z,92177.84
2022-10-22T17:20:44.978Z,92178.59
2022-10-22T17:23:30.733Z,92175.97
2022-10-22T17:26:16.488Z,92177.84
2022-10-22T17:29:02.383Z,92184.28
2022-10-22T17:31:48.107Z,92177.13
2022-10-22T17:34:33.888Z,92181.66
2022-10-22T17:37:19.715Z,92195.66
2022-10-22T17:40:05.522Z,92184.66
2022-10-22T17:42:51.410Z,92187.31
2022-10-22T17:45:37.311Z,92191.00
2022-10-22T17:48:23.369Z,92192.88
2022-10-22T17:51:11.098Z,92187.63
2022-10-22T17:53:56.901Z,92190.66
2022-10-22T17:56:44.673Z,92189.56
2022-10-22T17:59:30.509Z,92190.31
2022-10-22T18:02:18.337Z,92183.09
2022-10-22T18:05:04.274Z,92187.97
2022-10-22T18:07:50.175Z,92188.31
2022-10-22T18:10:35.903Z,92192.88
2022-10-22T18:13:21.692Z,92198.16
2022-10-22T18:16:07.492Z,92190.25
2022-10-22T18:18:53.234Z,92194.75
2022-10-22T18:21:39.045Z,92192.88
2022-10-22T18:24:24.819Z,92193.66
2022-10-22T18:27:10.842Z,92202.34
2022-10-22T18:29:56.856Z,92186.78
2022-10-22T18:32:42.542Z,92198.84
2022-10-22T18:35:28.486Z,92197.41
2022-10-22T18:38:14.269Z,92205.34
2022-10-22T18:41:00.114Z,92203.47
2022-10-22T18:43:46.145Z,92202.56
2022-10-22T18:46:31.900Z,92201.81
2022-10-22T18:49:17.838Z,92199.78
2022-10-22T18:52:03.695Z,92197.56
2022-10-22T18:54:49.502Z,92199.50
2022-10-22T18:57:35.534Z,92196.81
2022-10-22T19:00:21.325Z,92197.59
2022-10-22T19:03:07.385Z,92200.22
2022-10-22T19:05:53.273Z,92191.94
2022-10-22T19:08:41.107Z,92193.03
2022-10-22T19:11:26.968Z,92205.91
2022-10-22T19:14:12.876Z,92200.31
2022-10-22T19:16:58.646Z,92197.63
2022-10-22T19:19:44.552Z,92196.53
2022-10-22T19:22:30.266Z,92200.63
2022-10-22T19:25:16.061Z,92197.63
2022-10-22T19:28:01.888Z,92197.97
2022-10-22T19:30:47.721Z,92196.06
2022-10-22T19:33:33.549Z,92195.34
2022-10-22T19:36:19.427Z,92204.81
2022-10-22T19:39:05.250Z,92207.19
2022-10-22T19:41:51.147Z,92209.03
2022-10-22T19:44:36.825Z,92202.94
2022-10-22T19:47:22.690Z,92207.09
2022-10-22T19:50:08.543Z,92197.91
2022-10-22T19:52:54.560Z,92194.13
2022-10-22T19:55:40.460Z,92190.91
2022-10-22T19:58:26.297Z,92194.69
2022-10-22T20:01:12.264Z,92179.66
2022-10-22T20:03:58.254Z,92185.28
2022-10-22T20:06:44.123Z,92183.53
2022-10-22T20:09:29.938Z,92192.84
2022-10-22T20:12:15.781Z,92187.75
2022-10-22T20:15:01.497Z,92192.16
2022-10-22T20:17:47.277Z,92196.56
2022-10-22T20:20:33.192Z,92194.75
2022-10-22T20:23:19.022Z,92194.47
2022-10-22T20:26:04.778Z,92191.44
2022-10-22T20:28:50.529Z,92195.94
2022-10-22T20:31:36.360Z,92200.28
2022-10-22T20:34:22.098Z,92196.66
2022-10-22T20:37:08.041Z,92203.53
2022-10-22T20:39:53.828Z,92206.22
2022-10-22T20:42:40.008Z,92205.41
2022-10-22T20:45:26.118Z,92209.56
2022-10-22T20:48:12.056Z,92203.97
2022-10-22T20:50:57.881Z,92216.03
2022-10-22T20:53:43.763Z,92203.75
2022-10-22T20:56:29.601Z,92205.91
2022-10-22T20:59:15.617Z,92197.75
2022-10-22T21:02:01.540Z,92201.28
2022-10-22T21:04:47.312Z,92214.84
2022-10-22T21:07:33.281Z,92211.50
2022-10-22T21:10:19.173Z,92216.69
2022-10-22T21:13:05.021Z,92215.47
2022-10-22T21:15:51.032Z,92214.88
2022-10-22T21:18:36.706Z,92215.69
2022-10-22T21:21:22.736Z,92214.16
2022-10-22T21:24:08.386Z,92220.59
2022-10-22T21:26:54.190Z,92215.56
2022-10-22T21:29:40.088Z,92211.13
2022-10-22T21:32:25.992Z,92210.38
2022-10-22T21:35:11.854Z,92205.38
2022-10-22T21:37:57.898Z,92210.78
2022-10-22T21:40:43.791Z,92214.22
2022-10-22T21:43:29.593Z,92209.50
2022-10-22T21:46:15.380Z,92212.88
2022-10-22T21:49:01.215Z,92209.72
2022-10-22T21:51:47.182Z,92218.28
2022-10-22T21:54:33.037Z,92220.06
2022-10-22T21:57:18.967Z,92208.59
2022-10-22T22:00:04.982Z,92214.88
2022-10-22T22:02:52.769Z,92211.47
2022-10-22T22:05:38.549Z,92203.16
2022-10-22T22:08:24.493Z,92212.66
2022-10-22T22:11:10.347Z,92217.59
2022-10-22T22:13:56.163Z,92212.50
2022-10-22T22:16:41.942Z,92210.97
2022-10-22T22:19:27.745Z,92211.66
2022-10-22T22:22:13.581Z,92212.53
2022-10-22T22:24:59.416Z,92215.97
2022-10-22T22:27:45.407Z,92218.63
2022-10-22T22:30:31.172Z,92209.53
2022-10-22T22:33:16.914Z,92205.41
2022-10-22T22:36:02.747Z,92216.44
2022-10-22T22:38:48.494Z,92211.69
2022-10-22T22:41:34.461Z,92210.28
2022-10-22T22:44:20.267Z,92208.03
2022-10-22T22:47:06.112Z,92204.28
2022-10-22T22:49:52.040Z,92203.91
2022-10-22T22:52:37.917Z,92198.91
2022-10-22T22:55:23.685Z,92200.03
2022-10-22T22:58:09.597Z,92187.25
2022-10-22T23:04:30.282Z,92182.78
2022-10-22T23:07:18.155Z,92182.00
2022-10-22T23:10:03.985Z,92174.00
2022-10-22T23:12:51.771Z,92180.28
2022-10-22T23:15:39.711Z,92174.16
2022-10-22T23:18:25.517Z,92162.41
2022-10-22T23:21:11.428Z,92181.16
2022-10-22T23:23:57.382Z,92172.22
2022-10-22T23:26:43.161Z,92172.97
2022-10-22T23:29:29.056Z,92165.31
2022-10-22T23:32:14.862Z,92168.84
2022-10-22T23:35:00.708Z,92166.19
2022-10-22T23:37:46.507Z,92165.84
2022-10-22T23:40:32.221Z,92160.97
2022-10-22T23:43:18.088Z,92162.78
2022-10-22T23:46:03.907Z,92157.47
2022-10-22T23:48:49.768Z,92160.19
2022-10-22T23:51:35.557Z,92159.28
2022-10-22T23:54:21.444Z,92159.16
2022-10-22T23:57:07.286Z,92161.97
2022-10-22T23:59:53.074Z,92150.22
